createdAt,value
2019-01-20T00:00:58.167Z,99284.44
2019-01-20T00:03:26.021Z,99278.84
2019-01-20T00:05:53.865Z,99279.95
2019-01-20T00:08:21.748Z,99279.05
2019-01-20T00:10:49.585Z,99279.80
2019-01-20T00:13:17.431Z,99282.36
2019-01-20T00:15:46.800Z,99281.64
2019-01-20T00:18:14.615Z,99282.87
2019-01-20T00:20:42.432Z,99281.53
2019-01-20T00:23:10.275Z,99280.33
2019-01-20T00:25:38.142Z,99280.74
2019-01-20T00:28:11.019Z,99281.53
2019-01-20T00:30:38.850Z,99273.88
2019-01-20T00:33:08.220Z,99275.48
2019-01-20T00:35:36.026Z,99275.70
2019-01-20T00:38:23.074Z,99279.30
2019-01-20T00:40:50.874Z,99278.28
2019-01-20T00:43:18.708Z,99283.41
2019-01-20T00:45:46.537Z,99219.94
2019-01-20T00:48:14.369Z,99274.36
2019-01-20T00:50:42.151Z,99269.86
2019-01-20T00:53:10.016Z,99275.81
2019-01-20T00:55:37.847Z,99272.88
2019-01-20T00:58:05.559Z,99273.56
2019-01-20T01:00:33.339Z,99274.23
2019-01-20T01:03:01.138Z,99274.31
2019-01-20T01:05:29.143Z,99271.34
2019-01-20T01:07:57.335Z,99275.58
2019-01-20T01:10:25.106Z,99272.28
2019-01-20T01:12:53.658Z,99272.86
2019-01-20T01:15:21.530Z,99270.50
2019-01-20T01:17:49.549Z,99273.66
2019-01-20T01:20:18.195Z,99272.59
2019-01-20T01:22:46.040Z,99275.49
2019-01-20T01:25:15.170Z,99277.36
2019-01-20T01:27:43.098Z,99281.12
2019-01-20T01:30:17.704Z,99280.59
2019-01-20T01:32:45.482Z,99282.13
2019-01-20T01:35:13.425Z,99280.73
2019-01-20T01:37:41.238Z,99279.77
2019-01-20T01:40:10.384Z,99272.84
2019-01-20T01:42:38.220Z,99273.75
2019-01-20T01:45:09.551Z,99278.44
2019-01-20T01:47:37.525Z,99275.77
2019-01-20T01:50:06.322Z,99273.20
2019-01-20T01:52:34.120Z,99272.09
2019-01-20T01:55:01.921Z,99270.50
2019-01-20T01:57:39.904Z,99270.22
2019-01-20T02:00:15.238Z,99266.84
2019-01-20T02:02:43.043Z,99274.48
2019-01-20T02:05:13.673Z,99274.28
2019-01-20T02:07:41.438Z,99268.06
2019-01-20T02:10:13.118Z,99273.44
2019-01-20T02:12:41.214Z,99272.23
2019-01-20T02:15:11.081Z,99272.05
2019-01-20T02:17:38.890Z,99269.78
2019-01-20T02:20:10.017Z,99275.64
2019-01-20T02:22:37.966Z,99275.44
2019-01-20T02:25:06.148Z,99280.05
2019-01-20T02:27:44.177Z,99277.36
2019-01-20T02:30:22.354Z,99285.89
2019-01-20T02:32:50.186Z,99281.19
2019-01-20T02:35:17.912Z,99279.70
2019-01-20T02:37:58.745Z,99279.02
2019-01-20T02:40:26.573Z,99278.02
2019-01-20T02:42:54.374Z,99279.66
2019-01-20T02:45:22.150Z,99279.80
2019-01-20T02:47:49.879Z,99281.16
2019-01-20T02:50:17.731Z,99285.13
2019-01-20T02:52:45.526Z,99285.73
2019-01-20T02:55:13.349Z,99280.95
2019-01-20T02:57:41.089Z,99280.41
2019-01-20T03:00:19.314Z,99277.23
2019-01-20T03:02:47.225Z,99276.72
2019-01-20T03:05:15.194Z,99276.94
2019-01-20T03:07:43.073Z,99275.15
2019-01-20T03:10:11.731Z,99271.78
2019-01-20T03:12:39.561Z,99280.13
2019-01-20T03:15:08.339Z,99271.33
2019-01-20T03:17:36.115Z,99278.90
2019-01-20T03:20:08.075Z,99278.05
2019-01-20T03:22:35.880Z,99273.94
2019-01-20T03:25:05.141Z,99271.34
2019-01-20T03:27:33.450Z,99275.73
2019-01-20T03:30:02.506Z,99268.27
2019-01-20T03:32:30.323Z,99270.36
2019-01-20T03:34:58.072Z,99272.00
2019-01-20T03:37:25.865Z,99270.41
2019-01-20T03:39:53.743Z,99261.97
2019-01-20T03:42:21.546Z,99262.13
2019-01-20T03:44:49.325Z,99261.34
2019-01-20T03:47:17.130Z,99264.54
2019-01-20T03:49:44.941Z,99266.64
2019-01-20T03:52:12.753Z,99268.72
2019-01-20T03:54:40.549Z,99266.43
2019-01-20T03:57:08.326Z,99271.78
2019-01-20T03:59:36.121Z,99273.09
2019-01-20T04:02:04.436Z,99268.89
2019-01-20T04:04:32.225Z,99270.28
2019-01-20T04:07:00.069Z,99272.13
2019-01-20T04:09:27.861Z,99278.75
2019-01-20T04:11:55.630Z,99270.93
2019-01-20T04:14:23.455Z,99272.31
2019-01-20T04:16:51.333Z,99277.28
2019-01-20T04:19:19.113Z,99266.54
2019-01-20T04:21:46.907Z,99259.72
2019-01-20T04:24:14.672Z,99260.52
2019-01-20T04:26:42.500Z,99260.48
2019-01-20T04:29:10.316Z,99259.27
2019-01-20T04:31:38.120Z,99258.05
2019-01-20T04:34:05.870Z,99260.87
2019-01-20T04:36:33.769Z,99263.81
2019-01-20T04:39:01.605Z,99267.52
2019-01-20T04:41:29.409Z,99270.93
2019-01-20T04:43:57.164Z,99272.64
2019-01-20T04:46:24.998Z,99281.58
2019-01-20T04:48:52.744Z,99276.91
2019-01-20T04:51:20.672Z,99279.81
2019-01-20T04:53:48.739Z,99279.09
2019-01-20T04:56:16.675Z,99282.89
2019-01-20T04:58:44.446Z,99282.39
2019-01-20T05:01:12.224Z,99288.22
2019-01-20T05:03:40.005Z,99287.08
2019-01-20T05:06:07.789Z,99289.92
2019-01-20T05:08:35.548Z,99286.67
2019-01-20T05:11:03.372Z,99285.34
2019-01-20T05:13:31.165Z,99292.22
2019-01-20T05:15:58.967Z,99290.36
2019-01-20T05:18:26.766Z,99289.09
2019-01-20T05:20:54.525Z,99287.56
2019-01-20T05:23:22.366Z,99285.97
2019-01-20T05:25:50.192Z,99287.30
2019-01-20T05:28:18.206Z,99290.64
2019-01-20T05:30:46.003Z,99291.58
2019-01-20T05:33:13.858Z,99292.77
2019-01-20T05:35:41.668Z,99291.19
2019-01-20T05:38:09.607Z,99294.77
2019-01-20T05:40:37.440Z,99288.44
2019-01-20T05:43:05.276Z,99287.09
2019-01-20T05:45:33.024Z,99290.77
2019-01-20T05:48:00.970Z,99297.49
2019-01-20T05:50:28.792Z,99290.28
2019-01-20T05:52:56.634Z,99289.06
2019-01-20T05:55:24.430Z,99290.77
2019-01-20T05:57:52.267Z,99292.28
2019-01-20T06:00:23.643Z,99293.86
2019-01-20T06:02:51.529Z,99293.72
2019-01-20T06:05:19.332Z,99298.84
2019-01-20T06:07:47.398Z,99297.38
2019-01-20T06:10:15.241Z,99294.46
2019-01-20T06:12:43.024Z,99296.44
2019-01-20T06:15:14.447Z,99303.02
2019-01-20T06:17:42.457Z,99305.64
2019-01-20T06:20:10.381Z,99305.38
2019-01-20T06:22:38.162Z,99307.45
2019-01-20T06:25:06.603Z,99311.55
2019-01-20T06:27:34.389Z,99314.33
2019-01-20T06:30:02.234Z,99314.58
2019-01-20T06:32:30.057Z,99321.20
2019-01-20T06:34:57.946Z,99318.25
2019-01-20T06:37:25.717Z,99323.38
2019-01-20T06:39:53.965Z,99319.06
2019-01-20T06:42:21.790Z,99316.14
2019-01-20T06:44:49.628Z,99317.64
2019-01-20T06:47:17.449Z,99311.62
2019-01-20T06:49:45.261Z,99327.21
2019-01-20T06:52:13.554Z,99323.28
2019-01-20T06:54:41.379Z,99330.27
2019-01-20T06:57:14.352Z,99338.00
2019-01-20T06:59:42.174Z,99339.06
2019-01-20T07:02:09.936Z,99344.70
2019-01-20T07:04:37.726Z,99346.98
2019-01-20T07:07:05.492Z,99349.00
2019-01-20T07:09:33.299Z,99352.21
2019-01-20T07:12:01.081Z,99353.27
2019-01-20T07:14:28.932Z,99356.67
2019-01-20T07:16:56.707Z,99359.58
2019-01-20T07:19:24.474Z,99360.22
2019-01-20T07:21:52.240Z,99361.00
2019-01-20T07:24:20.019Z,99363.63
2019-01-20T07:26:47.849Z,99362.61
2019-01-20T07:29:15.649Z,99368.83
2019-01-20T07:31:43.408Z,99368.41
2019-01-20T07:34:11.217Z,99367.64
2019-01-20T07:36:38.967Z,99370.31
2019-01-20T07:39:07.386Z,99370.88
2019-01-20T07:41:35.123Z,99373.39
2019-01-20T07:44:02.973Z,99379.62
2019-01-20T07:46:30.953Z,99377.20
2019-01-20T07:48:58.746Z,99372.84
2019-01-20T07:51:26.588Z,99380.09
2019-01-20T07:53:54.401Z,99379.89
2019-01-20T07:56:22.170Z,99385.31
2019-01-20T07:58:49.959Z,99386.62
2019-01-20T08:01:17.788Z,99388.47
2019-01-20T08:03:45.637Z,99392.95
2019-01-20T08:06:13.458Z,99393.64
2019-01-20T08:08:41.243Z,99394.55
2019-01-20T08:11:09.006Z,99396.06
2019-01-20T08:13:36.775Z,99397.42
2019-01-20T08:16:04.608Z,99394.26
2019-01-20T08:18:32.403Z,99407.42
2019-01-20T08:21:00.172Z,99406.26
2019-01-20T08:23:27.907Z,99404.43
2019-01-20T08:25:55.732Z,99403.33
2019-01-20T08:28:23.533Z,99407.30
2019-01-20T08:30:51.332Z,99411.45
2019-01-20T08:33:19.561Z,99414.60
2019-01-20T08:35:47.391Z,99421.52
2019-01-20T08:38:15.473Z,99419.45
2019-01-20T08:40:43.283Z,99423.14
2019-01-20T08:43:11.077Z,99425.42
2019-01-20T08:46:31.251Z,99418.80
2019-01-20T08:48:59.065Z,99422.73
2019-01-20T08:51:27.069Z,99423.22
2019-01-20T08:53:54.871Z,99422.23
2019-01-20T08:56:23.718Z,99427.26
2019-01-20T08:58:51.441Z,99428.09
2019-01-20T09:01:19.247Z,99427.19
2019-01-20T09:04:06.472Z,99433.20
2019-01-20T09:06:34.256Z,99437.91
2019-01-20T09:09:07.884Z,99438.78
2019-01-20T09:11:35.830Z,99445.73
2019-01-20T09:14:03.709Z,99447.93
2019-01-20T09:16:31.485Z,99448.98
2019-01-20T09:18:59.311Z,99447.92
2019-01-20T09:21:27.054Z,99447.97
2019-01-20T09:23:54.833Z,99448.86
2019-01-20T09:26:22.650Z,99449.17
2019-01-20T09:28:53.744Z,99451.02
2019-01-20T09:31:21.571Z,99446.47
2019-01-20T09:33:49.391Z,99452.09
2019-01-20T09:36:17.191Z,99456.07
2019-01-20T09:38:45.060Z,99455.09
2019-01-20T09:41:12.910Z,99453.36
2019-01-20T09:43:47.141Z,99457.98
2019-01-20T09:46:10.525Z,99459.45
2019-01-20T09:48:48.503Z,99458.82
2019-01-20T09:51:16.301Z,99460.30
2019-01-20T09:53:44.142Z,99461.77
2019-01-20T09:56:11.948Z,99462.53
2019-01-20T09:58:39.767Z,99466.18
2019-01-20T10:01:07.680Z,99462.36
2019-01-20T10:03:35.447Z,99462.39
2019-01-20T10:06:03.477Z,99456.71
2019-01-20T10:08:31.476Z,99458.75
2019-01-20T10:10:59.284Z,99455.28
2019-01-20T10:13:27.080Z,99456.47
2019-01-20T10:15:54.900Z,99456.73
2019-01-20T10:18:22.796Z,99451.78
2019-01-20T10:20:50.586Z,99458.61
2019-01-20T10:23:21.105Z,99456.59
2019-01-20T10:25:48.916Z,99451.61
2019-01-20T10:28:25.003Z,99450.64
2019-01-20T10:30:52.816Z,99451.39
2019-01-20T10:33:20.605Z,99448.19
2019-01-20T10:36:07.269Z,99452.20
2019-01-20T10:38:45.213Z,99458.69
2019-01-20T10:41:13.030Z,99460.95
2019-01-20T10:43:40.841Z,99457.70
2019-01-20T10:46:08.660Z,99460.70
2019-01-20T10:48:46.669Z,99460.40
2019-01-20T10:51:14.469Z,99461.03
2019-01-20T10:53:42.306Z,99460.27
2019-01-20T10:56:10.170Z,99463.30
2019-01-20T10:58:43.013Z,99458.75
2019-01-20T11:01:10.809Z,99466.63
2019-01-20T11:03:38.594Z,99464.36
2019-01-20T11:06:06.410Z,99465.44
2019-01-20T11:08:34.386Z,99466.02
2019-01-20T11:11:02.326Z,99465.33
2019-01-20T11:13:30.267Z,99462.86
2019-01-20T11:15:58.075Z,99464.20
2019-01-20T11:18:31.058Z,99456.23
2019-01-20T11:20:58.806Z,99452.77
2019-01-20T11:23:26.747Z,99455.62
2019-01-20T11:25:54.538Z,99463.08
2019-01-20T11:28:32.523Z,99459.88
2019-01-20T11:31:00.320Z,99455.23
2019-01-20T11:33:28.138Z,99447.36
2019-01-20T11:35:55.971Z,99457.36
2019-01-20T11:38:23.793Z,99457.98
2019-01-20T11:40:51.639Z,99450.97
2019-01-20T11:43:19.447Z,99447.66
2019-01-20T11:45:47.300Z,99448.19
2019-01-20T11:48:24.765Z,99441.05
2019-01-20T11:50:53.631Z,99436.41
2019-01-20T11:53:21.543Z,99434.98
2019-01-20T11:55:49.434Z,99432.39
2019-01-20T11:58:17.559Z,99424.42
2019-01-20T12:00:45.797Z,99423.73
2019-01-20T12:03:14.085Z,99418.83
2019-01-20T12:05:45.224Z,99411.63
2019-01-20T12:08:13.774Z,99414.19
2019-01-20T12:10:42.363Z,99415.81
2019-01-20T12:13:12.446Z,99410.09
2019-01-20T12:15:40.739Z,99417.16
2019-01-20T12:18:09.269Z,99418.86
2019-01-20T12:20:37.651Z,99411.18
2019-01-20T12:23:05.982Z,99412.42
2019-01-20T12:25:34.663Z,99413.25
2019-01-20T12:28:02.951Z,99409.50
2019-01-20T12:30:34.207Z,99409.44
2019-01-20T12:33:02.023Z,99408.46
2019-01-20T12:35:29.804Z,99403.38
2019-01-20T12:37:57.612Z,99399.91
2019-01-20T12:40:29.692Z,99402.62
2019-01-20T12:42:57.496Z,99398.44
2019-01-20T12:45:25.402Z,99406.27
2019-01-20T12:47:53.204Z,99410.80
2019-01-20T12:50:21.069Z,99417.88
2019-01-20T12:52:48.900Z,99414.24
2019-01-20T12:55:17.016Z,99408.47
2019-01-20T12:57:44.863Z,99411.09
2019-01-20T13:00:15.914Z,99409.13
2019-01-20T13:02:43.783Z,99409.45
2019-01-20T13:05:12.068Z,99410.94
2019-01-20T13:07:39.972Z,99411.09
2019-01-20T13:10:09.933Z,99407.45
2019-01-20T13:12:37.729Z,99409.36
2019-01-20T13:15:08.978Z,99410.36
2019-01-20T13:17:47.963Z,99412.34
2019-01-20T13:20:18.879Z,99410.39
2019-01-20T13:22:46.787Z,99408.92
2019-01-20T13:25:18.335Z,99413.86
2019-01-20T13:27:46.286Z,99413.14
2019-01-20T13:30:19.633Z,99409.31
2019-01-20T13:32:47.450Z,99406.72
2019-01-20T13:35:16.984Z,99411.81
2019-01-20T13:38:15.457Z,99407.30
2019-01-20T13:40:56.841Z,99412.02
2019-01-20T13:43:24.707Z,99406.26
2019-01-20T13:45:52.610Z,99412.36
2019-01-20T13:48:25.911Z,99404.78
2019-01-20T13:50:53.738Z,99407.19
2019-01-20T13:53:21.525Z,99402.38
2019-01-20T13:55:49.343Z,99405.68
2019-01-20T13:58:17.201Z,99407.13
2019-01-20T14:00:45.053Z,99405.98
2019-01-20T14:03:12.766Z,99405.87
2019-01-20T14:05:40.576Z,99408.94
2019-01-20T14:08:08.598Z,99404.31
2019-01-20T14:10:36.432Z,99403.50
2019-01-20T14:13:04.555Z,99404.44
2019-01-20T14:15:32.342Z,99406.95
2019-01-20T14:18:00.323Z,99403.41
2019-01-20T14:20:28.100Z,99401.59
2019-01-20T14:22:55.893Z,99399.75
2019-01-20T14:25:24.630Z,99399.22
2019-01-20T14:27:53.239Z,99402.34
2019-01-20T14:30:24.784Z,99410.45
2019-01-20T14:32:53.127Z,99414.60
2019-01-20T14:35:21.631Z,99418.46
2019-01-20T14:37:50.113Z,99416.16
2019-01-20T14:40:18.664Z,99414.70
2019-01-20T14:42:48.708Z,99417.61
2019-01-20T14:45:17.437Z,99415.38
2019-01-20T14:47:45.521Z,99421.77
2019-01-20T14:50:20.601Z,99419.74
2019-01-20T14:52:48.414Z,99415.41
2019-01-20T14:55:16.699Z,99418.16
2019-01-20T14:57:44.556Z,99421.42
2019-01-20T15:00:31.095Z,99424.33
2019-01-20T15:02:59.022Z,99424.31
2019-01-20T15:05:26.771Z,99428.55
2019-01-20T15:07:56.686Z,99432.74
2019-01-20T15:10:24.488Z,99432.47
2019-01-20T15:12:52.273Z,99436.98
2019-01-20T15:15:24.991Z,99444.84
2019-01-20T15:18:08.799Z,99445.75
2019-01-20T15:20:36.858Z,99448.25
2019-01-20T15:23:05.281Z,99447.89
2019-01-20T15:25:33.063Z,99453.60
2019-01-20T15:28:16.053Z,99440.72
2019-01-20T15:30:43.858Z,99454.02
2019-01-20T15:33:11.670Z,99465.06
2019-01-20T15:35:39.539Z,99462.77
2019-01-20T15:38:10.572Z,99462.96
2019-01-20T15:40:39.597Z,99474.36
2019-01-20T15:43:26.887Z,99472.78
2019-01-20T15:45:55.338Z,99475.48
2019-01-20T15:48:23.316Z,99475.68
2019-01-20T15:50:51.164Z,99482.91
2019-01-20T15:53:18.967Z,99490.84
2019-01-20T15:55:46.810Z,99490.95
2019-01-20T15:58:14.713Z,99499.61
2019-01-20T16:00:42.583Z,99502.27
2019-01-20T16:03:10.399Z,99503.30
2019-01-20T16:05:57.713Z,99505.53
2019-01-20T16:08:27.676Z,99506.91
2019-01-20T16:10:55.426Z,99515.55
2019-01-20T16:13:23.302Z,99524.60
2019-01-20T16:15:51.114Z,99520.48
2019-01-20T16:18:18.968Z,99522.33
2019-01-20T16:20:46.713Z,99528.65
2019-01-20T16:23:14.491Z,99536.19
2019-01-20T16:25:42.347Z,99535.33
2019-01-20T16:28:20.052Z,99537.28
2019-01-20T16:30:47.909Z,99542.20
2019-01-20T16:33:15.794Z,99544.49
2019-01-20T16:35:44.771Z,99545.02
2019-01-20T16:38:13.141Z,99550.73
2019-01-20T16:40:41.075Z,99551.27
2019-01-20T16:43:09.570Z,99554.66
2019-01-20T16:45:42.859Z,99556.48
2019-01-20T16:48:11.688Z,99561.60
2019-01-20T16:50:39.904Z,99561.95
2019-01-20T16:53:09.521Z,99562.78
2019-01-20T16:55:37.390Z,99562.84
2019-01-20T16:58:05.270Z,99568.45
2019-01-20T17:00:36.132Z,99572.66
2019-01-20T17:03:03.948Z,99572.80
2019-01-20T17:05:31.732Z,99578.04
2019-01-20T17:07:59.550Z,99578.16
2019-01-20T17:10:31.461Z,99583.17
2019-01-20T17:12:59.742Z,99582.53
2019-01-20T17:15:31.321Z,99586.12
2019-01-20T17:18:06.650Z,99588.34
2019-01-20T17:20:34.475Z,99589.87
2019-01-20T17:23:02.335Z,99591.78
2019-01-20T17:25:30.172Z,99594.03
2019-01-20T17:28:01.452Z,99598.83
2019-01-20T17:30:30.990Z,99606.40
2019-01-20T17:32:58.842Z,99609.45
2019-01-20T17:35:26.674Z,99607.84
2019-01-20T17:38:05.346Z,99615.00
2019-01-20T17:40:33.228Z,99618.66
2019-01-20T17:43:00.968Z,99618.31
2019-01-20T17:45:32.935Z,99624.55
2019-01-20T17:48:00.687Z,99629.20
2019-01-20T17:50:34.766Z,99628.19
2019-01-20T17:53:03.181Z,99627.50
2019-01-20T17:55:31.187Z,99633.59
2019-01-20T17:57:59.050Z,99633.16
2019-01-20T18:00:41.963Z,99642.45
2019-01-20T18:03:10.695Z,99642.00
2019-01-20T18:05:38.732Z,99646.87
2019-01-20T18:08:06.584Z,99646.53
2019-01-20T18:10:34.502Z,99657.67
2019-01-20T18:13:10.039Z,99657.78
2019-01-20T18:15:44.503Z,99664.32
2019-01-20T18:18:32.065Z,99673.87
2019-01-20T18:21:00.097Z,99674.27
2019-01-20T18:23:27.848Z,99671.42
2019-01-20T18:25:56.237Z,99674.63
2019-01-20T18:28:27.008Z,99675.50
2019-01-20T18:31:00.201Z,99677.41
2019-01-20T18:33:30.869Z,99678.80
2019-01-20T18:35:58.744Z,99682.73
2019-01-20T18:39:06.002Z,99686.52
2019-01-20T18:41:34.041Z,99692.64
2019-01-20T18:44:01.936Z,99700.72
2019-01-20T18:46:37.131Z,99701.09
2019-01-20T18:49:05.209Z,99699.53
2019-01-20T18:51:33.286Z,99704.63
2019-01-20T18:54:01.153Z,99706.78
2019-01-20T18:56:29.455Z,99709.67
2019-01-20T18:58:57.940Z,99711.13
2019-01-20T19:01:27.899Z,99708.38
2019-01-20T19:03:56.499Z,99715.30
2019-01-20T19:06:24.986Z,99720.88
2019-01-20T19:08:53.026Z,99725.58
2019-01-20T19:11:20.845Z,99731.34
2019-01-20T19:14:08.148Z,99733.19
2019-01-20T19:16:36.087Z,99735.06
2019-01-20T19:19:19.048Z,99745.75
2019-01-20T19:21:46.891Z,99749.01
2019-01-20T19:24:14.750Z,99754.77
2019-01-20T19:26:42.626Z,99753.23
2019-01-20T19:29:10.551Z,99758.27
2019-01-20T19:31:38.455Z,99766.37
2019-01-20T19:34:06.310Z,99762.17
2019-01-20T19:36:34.166Z,99769.82
2019-01-20T19:39:08.625Z,99773.35
2019-01-20T19:41:36.532Z,99772.82
2019-01-20T19:44:04.506Z,99778.66
2019-01-20T19:46:32.405Z,99773.06
2019-01-20T19:49:00.378Z,99777.22
2019-01-20T19:51:28.270Z,99783.08
2019-01-20T19:53:56.150Z,99782.48
2019-01-20T19:56:24.033Z,99784.91
2019-01-20T19:59:27.465Z,99788.06
2019-01-20T20:01:55.354Z,99790.17
2019-01-20T20:04:23.561Z,99789.44
2019-01-20T20:06:51.452Z,99792.72
2019-01-20T20:09:19.215Z,99798.47
2019-01-20T20:11:47.098Z,99793.66
2019-01-20T20:14:14.943Z,99799.06
2019-01-20T20:16:42.862Z,99803.14
2019-01-20T20:19:10.716Z,99807.62
2019-01-20T20:21:38.565Z,99805.39
2019-01-20T20:24:06.481Z,99809.50
2019-01-20T20:26:34.513Z,99814.38
2019-01-20T20:29:07.764Z,99813.80
2019-01-20T20:31:35.658Z,99817.91
2019-01-20T20:34:03.957Z,99820.98
2019-01-20T20:36:31.824Z,99825.09
2019-01-20T20:38:59.938Z,99831.63
2019-01-20T20:41:27.847Z,99833.62
2019-01-20T20:43:55.745Z,99833.72
2019-01-20T20:46:30.405Z,99838.53
2019-01-20T20:48:53.352Z,99842.98
2019-01-20T20:51:21.208Z,99843.24
2019-01-20T20:53:55.025Z,99841.64
2019-01-20T20:56:22.911Z,99838.11
2019-01-20T20:58:51.584Z,99842.81
2019-01-20T21:01:19.776Z,99847.48
2019-01-20T21:03:48.769Z,99848.86
2019-01-20T21:06:16.575Z,99851.94
2019-01-20T21:08:50.418Z,99854.57
2019-01-20T21:11:18.282Z,99856.27
2019-01-20T21:13:46.288Z,99861.20
2019-01-20T21:16:14.106Z,99862.61
2019-01-20T21:19:02.209Z,99860.66
2019-01-20T21:21:30.025Z,99860.95
2019-01-20T21:23:59.587Z,99864.44
2019-01-20T21:26:27.469Z,99864.17
2019-01-20T21:29:36.008Z,99864.01
2019-01-20T21:32:04.019Z,99864.83
2019-01-20T21:34:31.856Z,99863.53
2019-01-20T21:36:59.857Z,99867.53
2019-01-20T21:39:27.703Z,99865.82
2019-01-20T21:41:55.570Z,99868.12
2019-01-20T21:44:23.380Z,99874.86
2019-01-20T21:46:51.217Z,99875.94
2019-01-20T21:49:19.340Z,99878.20
2019-01-20T21:51:47.172Z,99886.22
2019-01-20T21:54:18.555Z,99890.56
2019-01-20T21:56:46.627Z,99894.03
2019-01-20T21:59:14.448Z,99891.82
2019-01-20T22:01:48.951Z,99891.71
2019-01-20T22:04:20.801Z,99899.88
2019-01-20T22:06:49.052Z,99903.03
2019-01-20T22:09:16.865Z,99904.67
2019-01-20T22:11:44.679Z,99905.19
2019-01-20T22:14:12.482Z,99908.88
2019-01-20T22:16:40.323Z,99909.32
2019-01-20T22:19:27.862Z,99918.56
2019-01-20T22:21:55.679Z,99916.56
2019-01-20T22:24:23.461Z,99915.27
2019-01-20T22:26:51.275Z,99911.80
2019-01-20T22:29:19.031Z,99914.38
2019-01-20T22:31:46.883Z,99922.71
2019-01-20T22:34:14.695Z,99922.02
2019-01-20T22:36:42.570Z,99922.91
2019-01-20T22:39:10.366Z,99916.80
2019-01-20T22:41:38.255Z,99922.74
2019-01-20T22:44:06.022Z,99925.76
2019-01-20T22:46:33.869Z,99925.81
2019-01-20T22:49:01.644Z,99925.31
2019-01-20T22:51:29.473Z,99928.77
2019-01-20T22:53:57.251Z,99928.41
2019-01-20T22:56:25.073Z,99917.70
2019-01-20T22:58:57.902Z,99937.66
2019-01-20T23:01:25.880Z,99938.60
2019-01-20T23:03:53.728Z,99938.89
2019-01-20T23:06:21.520Z,99941.87
2019-01-20T23:08:49.521Z,99943.43
2019-01-20T23:11:17.349Z,99944.41
2019-01-20T23:13:45.136Z,99944.89
2019-01-20T23:16:12.941Z,99945.17
2019-01-20T23:18:40.912Z,99950.31
2019-01-20T23:21:11.171Z,99947.00
2019-01-20T23:23:38.942Z,99952.19
2019-01-20T23:26:06.742Z,99952.72
2019-01-20T23:28:39.705Z,99949.52
2019-01-20T23:31:07.566Z,99948.58
2019-01-20T23:33:35.398Z,99944.52
2019-01-20T23:36:03.573Z,99951.92
2019-01-20T23:38:36.526Z,99948.60
2019-01-20T23:41:04.345Z,99946.39
2019-01-20T23:43:32.123Z,99946.38
2019-01-20T23:45:59.883Z,99946.06
2019-01-20T23:48:32.840Z,99948.10
2019-01-20T23:51:20.056Z,99947.85
2019-01-20T23:53:47.832Z,99945.94
2019-01-20T23:56:15.647Z,99940.21
2019-01-20T23:58:48.492Z,99939.63
